createdAt,value
2018-04-14T00:01:30.407Z,39
2018-04-14T00:11:28.440Z,39
2018-04-14T00:21:33.840Z,39
2018-04-14T00:31:28.446Z,40
2018-04-14T00:41:30.091Z,38
2018-04-14T00:51:28.006Z,40
2018-04-14T01:01:57.077Z,40
2018-04-14T01:11:27.715Z,40
2018-04-14T01:21:45.842Z,40
2018-04-14T01:31:31.080Z,39
2018-04-14T01:41:30.741Z,39
2018-04-14T01:51:30.793Z,40
2018-04-14T02:01:28.647Z,41
2018-04-14T02:11:29.766Z,40
2018-04-14T02:21:33.793Z,39
2018-04-14T02:31:28.772Z,40
2018-04-14T02:41:28.755Z,40
2018-04-14T02:51:32.691Z,39
2018-04-14T03:01:35.485Z,39
2018-04-14T03:11:33.604Z,39
2018-04-14T03:21:34.358Z,40
2018-04-14T03:31:33.536Z,40
2018-04-14T03:41:34.555Z,39
2018-04-14T03:51:33.610Z,39
2018-04-14T04:01:31.278Z,40
2018-04-14T04:11:28.206Z,41
2018-04-14T04:21:28.167Z,40
2018-04-14T04:31:33.203Z,40
2018-04-14T04:41:29.520Z,40
2018-04-14T04:51:43.530Z,40
2018-04-14T05:01:33.908Z,40
2018-04-14T05:11:41.622Z,40
2018-04-14T05:21:31.887Z,40
2018-04-14T05:31:33.936Z,39
2018-04-14T05:42:01.451Z,40
2018-04-14T05:51:46.249Z,39
2018-04-14T06:01:33.950Z,39
2018-04-14T06:11:28.954Z,40
2018-04-14T06:21:29.354Z,39
2018-04-14T06:31:31.011Z,39
2018-04-14T06:41:30.113Z,40
2018-04-14T06:51:28.245Z,39
2018-04-14T07:01:30.246Z,38
2018-04-14T07:11:28.466Z,39
2018-04-14T07:21:28.661Z,39
2018-04-14T07:31:28.633Z,39
2018-04-14T07:41:30.441Z,38
2018-04-14T07:51:28.463Z,39
2018-04-14T08:01:29.836Z,38
2018-04-14T08:11:28.445Z,38
2018-04-14T08:21:28.676Z,39
2018-04-14T08:31:30.015Z,39
2018-04-14T08:41:28.498Z,38
2018-04-14T08:51:27.576Z,38
2018-04-14T09:01:30.066Z,38
2018-04-14T09:11:32.338Z,39
2018-04-14T09:21:30.194Z,37
2018-04-14T09:31:27.889Z,37
2018-04-14T09:41:30.101Z,38
2018-04-14T09:51:32.647Z,38
2018-04-14T10:01:28.967Z,37
2018-04-14T10:11:33.249Z,37
2018-04-14T10:21:28.897Z,38
2018-04-14T10:31:28.261Z,37
2018-04-14T10:41:28.251Z,37
2018-04-14T10:51:29.043Z,36
2018-04-14T11:01:28.441Z,36
2018-04-14T11:11:28.375Z,36
2018-04-14T11:21:45.762Z,36
2018-04-14T11:31:31.524Z,36
2018-04-14T11:41:30.199Z,36
2018-04-14T11:51:28.942Z,36
2018-04-14T12:01:26.975Z,36
2018-04-14T12:11:33.912Z,36
2018-04-14T12:21:44.659Z,36
2018-04-14T12:31:29.725Z,36
2018-04-14T12:41:28.287Z,36
2018-04-14T12:51:27.651Z,36
2018-04-14T13:01:27.758Z,36
2018-04-14T13:11:29.033Z,35
2018-04-14T13:21:31.050Z,35
2018-04-14T13:31:33.480Z,35
2018-04-14T13:41:27.619Z,35
2018-04-14T13:51:30.227Z,35
2018-04-14T14:01:26.903Z,35
2018-04-14T14:11:28.190Z,35
2018-04-14T14:21:30.259Z,35
2018-04-14T14:31:27.032Z,35
2018-04-14T14:41:27.373Z,35
2018-04-14T14:51:28.069Z,35
2018-04-14T15:01:45.982Z,35
2018-04-14T15:11:40.257Z,35
2018-04-14T15:23:54.316Z,35
2018-04-14T15:31:33.970Z,34
2018-04-14T15:41:32.231Z,34
2018-04-14T15:51:29.430Z,34
2018-04-14T16:01:29.019Z,34
2018-04-14T16:11:32.673Z,34
2018-04-14T16:21:27.701Z,34
2018-04-14T16:31:34.643Z,35
2018-04-14T16:41:32.802Z,34
2018-04-14T16:51:33.100Z,35
2018-04-14T17:01:33.124Z,35
2018-04-14T17:11:32.346Z,35
2018-04-14T17:21:46.883Z,35
2018-04-14T17:31:28.574Z,36
2018-04-14T17:41:29.817Z,35
2018-04-14T17:51:33.133Z,35
2018-04-14T18:01:26.959Z,35
2018-04-14T18:11:28.812Z,36
2018-04-14T18:21:26.788Z,36
2018-04-14T18:31:48.047Z,36
2018-04-14T18:42:04.047Z,36
2018-04-14T18:51:57.961Z,36
2018-04-14T19:01:58.535Z,35
2018-04-14T19:11:47.507Z,37
2018-04-14T19:21:34.268Z,37
2018-04-14T19:31:33.427Z,37
2018-04-14T19:52:00.117Z,37
2018-04-14T20:01:59.622Z,37
2018-04-14T20:11:50.026Z,37
2018-04-14T20:21:45.171Z,37
2018-04-14T20:32:14.960Z,37
2018-04-14T20:41:42.818Z,37
2018-04-14T20:51:54.197Z,37
2018-04-14T21:01:36.660Z,37
2018-04-14T21:11:33.383Z,37
2018-04-14T21:21:33.831Z,37
2018-04-14T21:31:32.950Z,38
2018-04-14T21:41:28.872Z,38
2018-04-14T21:51:30.475Z,38
2018-04-14T22:01:30.218Z,38
2018-04-14T22:12:09.532Z,38
2018-04-14T22:21:30.416Z,38
2018-04-14T22:31:33.906Z,38
2018-04-14T22:41:34.669Z,38
2018-04-14T22:51:26.932Z,38
2018-04-14T23:01:26.568Z,38
2018-04-14T23:11:43.402Z,38
2018-04-14T23:21:28.920Z,38
2018-04-14T23:31:32.579Z,38
2018-04-14T23:41:28.462Z,38
2018-04-14T23:51:28.248Z,38
